Time;durP1;ratioP1;P1;durP2;ratioP2;P2;SDS_P1;SDS_P2;PMS_P1;PMS_P2;Temp;Humidity;BMP_temperature;BMP_pressure;BME280_temperature;BME280_humidity;BME280_pressure;Samples;Min_cycle;Max_cycle;Signal;HPM_P1;HPM_P2
2024/01/02 00:01:00;;;;;;;9.75;1.83;;;;;;;;;;5022587;28;20089;-77
2024/01/02 00:03:43;;;;;;;12.00;2.97;;;;;;;;;;4998022;28;20027;-76
2024/01/02 00:06:18;;;;;;;11.17;1.90;;;;;;;;;;5015057;28;20011;-76
2024/01/02 00:08:45;;;;;;;7.70;1.77;;;;;;;;;;5000145;28;20038;-77
2024/01/02 00:14:07;;;;;;;16.67;3.53;;;;;;;;;;5015121;28;20039;-77
2024/01/02 00:16:49;;;;;;;9.37;2.47;;;;;;;;;;5022774;28;20030;-80
2024/01/02 00:19:21;;;;;;;5.03;1.83;;;;;;;;;;4991589;28;20026;-77
2024/01/02 00:21:49;;;;;;;11.60;2.33;;;;;;;;;;5016635;28;20054;-76
2024/01/02 00:27:24;;;;;;;10.87;2.17;;;;;;;;;;5013149;28;20018;-77
2024/01/02 00:30:05;;;;;;;;;;;;;;;;;;;;;
2024/01/02 00:32:34;;;;;;;8.80;1.63;;;;;;;;;;5013341;28;20050;-77
2024/01/02 00:35:26;;;;;;;5.20;1.80;;;;;;;;;;5015108;28;20091;-77
2024/01/02 00:37:57;;;;;;;11.03;2.53;;;;;;;;;;4997721;28;20043;-77
2024/01/02 00:40:52;;;;;;;9.67;2.47;;;;;;;;;;5014467;28;20022;-77
2024/01/02 00:43:38;;;;;;;7.90;1.50;;;;;;;;;;5007053;28;20042;-77
2024/01/02 00:46:13;;;;;;;6.80;1.30;;;;;;;;;;5016818;28;20042;-77
2024/01/02 00:51:28;;;;;;;8.77;2.10;;;;;;;;;;5011210;28;20042;-78
2024/01/02 00:53:58;;;;;;;7.17;1.50;;;;;;;;;;5009738;28;20098;-78
2024/01/02 00:56:41;;;;;;;4.53;1.03;;;;;;;;;;5016431;28;20030;-77
2024/01/02 00:59:30;;;;;;;5.80;1.05;;;;;;;;;;5009590;28;20050;-77
2024/01/02 01:02:19;;;;;;;5.27;1.07;;;;;;;;;;5016675;28;20085;-78
2024/01/02 01:07:49;;;;;;;;;;;;;;;;;;;;;
2024/01/02 01:10:30;;;;;;;7.37;1.40;;;;;;;;;;5015609;28;20057;-78
2024/01/02 01:13:22;;;;;;;4.37;1.10;;;;;;;;;;5013267;28;20041;-77
2024/01/02 01:16:13;;;;;;;5.47;1.20;;;;;;;;;;5065319;23;20038;-78
2024/01/02 01:18:49;;;;;;;;;;;;;;;;;;;;;
2024/01/02 01:21:19;;;;;;;4.60;1.00;;;;;;;;;;5005292;28;20046;-77
2024/01/02 01:24:13;;;;;;;4.03;1.50;;;;;;;;;;4989896;28;21191;-78
2024/01/02 01:26:52;;;;;;;4.27;0.80;;;;;;;;;;4986076;28;20018;-78
2024/01/02 01:29:27;;;;;;;3.20;0.60;;;;;;;;;;4991275;28;20034;-78
2024/01/02 01:32:13;;;;;;;5.27;0.80;;;;;;;;;;4990211;28;20010;-78
2024/01/02 01:35:00;;;;;;;;;;;;;;;;;;;;;
2024/01/02 01:37:37;;;;;;;3.53;0.73;;;;;;;;;;5008782;28;20058;-78
2024/01/02 01:40:14;;;;;;;5.20;0.93;;;;;;;;;;5010304;28;20023;-77
2024/01/02 01:42:40;;;;;;;3.23;0.60;;;;;;;;;;4997411;28;20050;-78
2024/01/02 01:45:29;;;;;;;2.27;0.60;;;;;;;;;;5058792;23;20046;-78
2024/01/02 01:48:08;;;;;;;;;;;;;;;;;;;;;
2024/01/02 01:50:37;;;;;;;2.83;0.50;;;;;;;;;;5031315;28;20025;-78
2024/01/02 01:56:15;;;;;;;2.00;0.90;;;;;;;;;;5031242;28;20041;-77
2024/01/02 01:58:49;;;;;;;6.00;0.97;;;;;;;;;;5022405;28;20041;-77
2024/01/02 02:04:08;;;;;;;0.97;0.40;;;;;;;;;;4999001;28;20050;-78
2024/01/02 02:06:47;;;;;;;2.17;0.50;;;;;;;;;;5016281;28;20030;-77
2024/01/02 02:09:25;;;;;;;2.40;0.40;;;;;;;;;;5023103;28;20026;-78
2024/01/02 02:12:02;;;;;;;5.40;0.33;;;;;;;;;;5019859;28;20021;-78
2024/01/02 02:14:36;;;;;;;1.70;0.40;;;;;;;;;;5014351;28;20015;-78
2024/01/02 02:17:19;;;;;;;1.87;0.30;;;;;;;;;;5025142;28;20117;-78
2024/01/02 02:19:48;;;;;;;4.43;0.83;;;;;;;;;;5023240;28;21043;-78
2024/01/02 02:22:35;;;;;;;1.10;0.40;;;;;;;;;;5024546;28;20034;-77
2024/01/02 02:25:03;;;;;;;0.73;0.20;;;;;;;;;;5030945;28;20014;-77
2024/01/02 02:27:29;;;;;;;0.67;0.30;;;;;;;;;;5023239;28;20106;-77
2024/01/02 02:30:24;;;;;;;1.83;0.20;;;;;;;;;;5018496;28;20050;-76
2024/01/02 02:32:44;;;;;;;2.10;0.33;;;;;;;;;;5027139;28;20089;-77
2024/01/02 02:35:25;;;;;;;2.00;0.30;;;;;;;;;;5022296;28;20025;-76
2024/01/02 02:37:55;;;;;;;0.70;0.30;;;;;;;;;;5024351;28;20093;-77
2024/01/02 02:40:21;;;;;;;0.60;0.20;;;;;;;;;;5015830;28;20117;-76
2024/01/02 02:42:53;;;;;;;12.17;0.97;;;;;;;;;;5021096;28;20037;-78
2024/01/02 02:45:36;;;;;;;0.83;0.13;;;;;;;;;;5020425;28;20053;-77
2024/01/02 02:48:19;;;;;;;3.50;0.47;;;;;;;;;;5022406;28;20026;-77
2024/01/02 02:50:48;;;;;;;2.43;0.20;;;;;;;;;;5020516;28;20034;-76
2024/01/02 02:53:23;;;;;;;7.37;0.40;;;;;;;;;;5021443;28;20011;-77
2024/01/02 02:56:16;;;;;;;;;;;;;;;;;;;;;
2024/01/02 02:58:50;;;;;;;0.50;0.23;;;;;;;;;;5021217;28;20041;-77
2024/01/02 03:01:23;;;;;;;2.10;0.33;;;;;;;;;;5019915;28;20035;-77
2024/01/02 03:03:59;;;;;;;0.70;0.20;;;;;;;;;;5019777;28;20034;-77
2024/01/02 03:06:35;;;;;;;1.50;0.20;;;;;;;;;;5020397;28;20026;-77
2024/01/02 03:09:11;;;;;;;0.63;0.20;;;;;;;;;;5020520;28;20056;-78
2024/01/02 03:12:16;;;;;;;0.30;0.20;;;;;;;;;;5021551;28;20040;-77
2024/01/02 03:14:42;;;;;;;0.20;0.20;;;;;;;;;;5090923;23;20044;-77
2024/01/02 03:17:28;;;;;;;;;;;;;;;;;;;;;
2024/01/02 03:19:57;;;;;;;5.97;0.63;;;;;;;;;;5034744;28;20045;-77
2024/01/02 03:22:25;;;;;;;1.90;0.37;;;;;;;;;;5036186;28;20090;-77
2024/01/02 03:25:00;;;;;;;0.90;0.10;;;;;;;;;;5018113;28;20021;-76
2024/01/02 03:27:26;;;;;;;1.33;0.30;;;;;;;;;;5035644;28;20030;-77
2024/01/02 03:30:03;;;;;;;;;;;;;;;;;;;;;
2024/01/02 03:32:37;;;;;;;1.70;0.20;;;;;;;;;;5032904;28;20030;-76
2024/01/02 03:35:14;;;;;;;4.17;0.30;;;;;;;;;;5032313;28;20022;-78
2024/01/02 03:37:42;;;;;;;0.40;0.10;;;;;;;;;;5018141;28;20045;-77
2024/01/02 03:40:11;;;;;;;0.53;0.17;;;;;;;;;;5005104;28;20049;-77
2024/01/02 03:42:39;;;;;;;1.60;0.20;;;;;;;;;;5004254;28;20063;-77
2024/01/02 03:45:15;;;;;;;3.13;0.53;;;;;;;;;;5025286;23;20031;-77
2024/01/02 03:47:54;;;;;;;0.87;0.20;;;;;;;;;;5011310;28;20061;-77
2024/01/02 03:50:33;;;;;;;1.00;0.30;;;;;;;;;;4995199;28;20018;-78
2024/01/02 03:53:27;;;;;;;1.33;0.93;;;;;;;;;;5007482;28;20086;-78
2024/01/02 03:56:03;;;;;;;3.13;0.50;;;;;;;;;;5009951;28;20019;-77
2024/01/02 03:58:38;;;;;;;0.87;0.50;;;;;;;;;;5010777;28;20019;-76
2024/01/02 04:01:07;;;;;;;1.07;0.60;;;;;;;;;;5009074;28;20093;-78
2024/01/02 04:03:47;;;;;;;1.80;1.10;;;;;;;;;;4995079;28;20057;-76
2024/01/02 04:06:40;;;;;;;2.17;1.20;;;;;;;;;;5008122;28;20054;-77
2024/01/02 04:09:16;;;;;;;2.85;1.10;;;;;;;;;;5009772;28;20026;-76
2024/01/02 04:11:50;;;;;;;6.67;1.60;;;;;;;;;;5010831;28;20026;-77
2024/01/02 04:14:41;;;;;;;2.50;0.70;;;;;;;;;;5034756;23;20082;-77
2024/01/02 04:17:28;;;;;;;4.57;1.10;;;;;;;;;;5011599;28;20034;-77
2024/01/02 04:20:04;;;;;;;3.80;1.27;;;;;;;;;;5010013;28;20035;-78
2024/01/02 04:23:01;;;;;;;1.30;0.83;;;;;;;;;;5006823;28;20025;-76
2024/01/02 04:25:40;;;;;;;2.57;1.20;;;;;;;;;;5010806;28;20019;-76
2024/01/02 04:28:33;;;;;;;3.43;1.33;;;;;;;;;;5035294;23;20113;-77
2024/01/02 04:31:08;;;;;;;1.60;1.20;;;;;;;;;;5036003;28;20056;-77
2024/01/02 04:33:42;;;;;;;3.43;1.27;;;;;;;;;;5035309;28;20010;-77
2024/01/02 04:36:27;;;;;;;2.33;0.80;;;;;;;;;;5019371;28;20033;-77
2024/01/02 04:39:07;;;;;;;2.30;1.30;;;;;;;;;;5004115;28;20102;-77
2024/01/02 04:41:38;;;;;;;1.80;1.20;;;;;;;;;;5021194;28;20090;-77
2024/01/02 04:44:17;;;;;;;1.87;0.97;;;;;;;;;;5155906;23;20099;-77
2024/01/02 04:50:00;;;;;;;0.90;0.60;;;;;;;;;;5002470;28;20011;-77
2024/01/02 04:52:55;;;;;;;1.03;0.70;;;;;;;;;;5016929;28;20054;-77
2024/01/02 04:55:50;;;;;;;2.47;0.50;;;;;;;;;;5011261;28;20017;-77
2024/01/02 04:58:24;;;;;;;2.73;1.07;;;;;;;;;;5003929;28;20030;-76
2024/01/02 05:01:09;;;;;;;;;;;;;;;;;;;;;
2024/01/02 05:03:45;;;;;;;0.77;0.47;;;;;;;;;;5021295;28;20014;-76
2024/01/02 05:06:23;;;;;;;;;;;;;;;;;;;;;
2024/01/02 05:08:54;;;;;;;1.63;0.60;;;;;;;;;;5017286;28;20025;-77
2024/01/02 05:11:22;;;;;;;1.57;0.30;;;;;;;;;;5002348;28;20042;-77
2024/01/02 05:13:56;;;;;;;3.20;0.30;;;;;;;;;;5016144;28;20023;-76
2024/01/02 05:16:27;;;;;;;0.47;0.13;;;;;;;;;;5004448;28;20030;-77
2024/01/02 05:18:59;;;;;;;0.30;0.13;;;;;;;;;;5020504;28;20074;-77
2024/01/02 05:21:37;;;;;;;0.45;0.17;;;;;;;;;;5020460;28;20037;-76
2024/01/02 05:24:26;;;;;;;1.17;0.20;;;;;;;;;;5014441;28;20019;-77
2024/01/02 05:26:57;;;;;;;0.40;0.20;;;;;;;;;;5001881;28;20042;-76
2024/01/02 05:29:33;;;;;;;;;;;;;;;;;;;;;
2024/01/02 05:32:11;;;;;;;0.93;0.20;;;;;;;;;;5020352;28;20037;-77
2024/01/02 05:34:42;;;;;;;0.40;0.20;;;;;;;;;;4993410;28;20018;-77
2024/01/02 05:37:18;;;;;;;;;;;;;;;;;;;;;
2024/01/02 05:39:47;;;;;;;1.80;0.20;;;;;;;;;;5019496;28;20018;-77
2024/01/02 05:42:13;;;;;;;0.43;0.10;;;;;;;;;;5002013;28;20026;-77
2024/01/02 05:44:50;;;;;;;0.50;0.20;;;;;;;;;;5003546;28;20026;-77
2024/01/02 05:47:29;;;;;;;0.20;0.10;;;;;;;;;;5003165;28;20019;-78
2024/01/02 05:49:57;;;;;;;0.60;0.10;;;;;;;;;;5004900;28;20034;-77
2024/01/02 05:52:51;;;;;;;0.10;0.10;;;;;;;;;;5014040;28;20030;-77
2024/01/02 05:55:17;;;;;;;0.27;0.10;;;;;;;;;;5003455;28;20011;-77
2024/01/02 05:58:03;;;;;;;1.77;0.30;;;;;;;;;;4999951;28;20030;-77
2024/01/02 06:00:58;;;;;;;1.00;0.27;;;;;;;;;;4993860;28;20038;-78
2024/01/02 06:03:27;;;;;;;0.40;0.10;;;;;;;;;;4992795;28;20019;-77
2024/01/02 06:05:59;;;;;;;0.67;0.43;;;;;;;;;;5003368;28;20021;-78
2024/01/02 06:08:27;;;;;;;1.15;0.20;;;;;;;;;;5000263;28;20085;-77
2024/01/02 06:11:01;;;;;;;0.77;0.33;;;;;;;;;;5012252;28;20007;-77
2024/01/02 06:13:39;;;;;;;0.30;0.20;;;;;;;;;;5003510;28;20016;-78
2024/01/02 06:16:14;;;;;;;0.10;0.07;;;;;;;;;;5014478;28;20219;-78
2024/01/02 06:18:42;;;;;;;0.20;0.10;;;;;;;;;;4999446;28;20045;-77
2024/01/02 06:21:13;;;;;;;0.20;0.00;;;;;;;;;;4997296;28;20054;-77
2024/01/02 06:23:41;;;;;;;0.43;0.10;;;;;;;;;;5011444;28;20035;-78
2024/01/02 06:26:34;;;;;;;0.10;0.10;;;;;;;;;;4998069;28;20018;-77
2024/01/02 06:29:19;;;;;;;0.00;0.00;;;;;;;;;;5013158;28;20030;-77
2024/01/02 06:31:47;;;;;;;0.00;0.00;;;;;;;;;;5010167;28;20029;-77
2024/01/02 06:34:31;;;;;;;0.57;0.20;;;;;;;;;;5007949;28;20014;-78
2024/01/02 06:37:00;;;;;;;0.00;0.00;;;;;;;;;;4998099;28;20046;-76
2024/01/02 06:39:28;;;;;;;0.10;0.03;;;;;;;;;;5013856;28;20030;-77
2024/01/02 06:42:01;;;;;;;0.07;0.00;;;;;;;;;;5011299;28;20069;-77
2024/01/02 06:44:41;;;;;;;0.10;0.00;;;;;;;;;;5047187;23;20038;-78
2024/01/02 06:47:23;;;;;;;0.10;0.00;;;;;;;;;;5000217;28;20042;-77
2024/01/02 06:49:52;;;;;;;0.20;0.10;;;;;;;;;;5004318;28;20014;-77
2024/01/02 06:52:20;;;;;;;0.23;0.10;;;;;;;;;;4998390;28;20025;-78
2024/01/02 06:55:08;;;;;;;;;;;;;;;;;;;;;
2024/01/02 06:57:52;;;;;;;0.00;0.00;;;;;;;;;;5019329;28;20046;-78
2024/01/02 07:00:55;;;;;;;0.43;0.00;;;;;;;;;;5001222;28;20255;-77
2024/01/02 07:03:41;;;;;;;0.57;0.00;;;;;;;;;;5010783;28;20017;-77
2024/01/02 07:06:26;;;;;;;0.00;0.00;;;;;;;;;;5017889;28;20018;-78
2024/01/02 07:09:02;;;;;;;;;;;;;;;;;;;;;
2024/01/02 07:11:33;;;;;;;0.00;0.00;;;;;;;;;;5018933;28;20073;-78
2024/01/02 07:14:23;;;;;;;0.00;0.00;;;;;;;;;;5002639;28;20014;-78
2024/01/02 07:17:21;;;;;;;0.10;0.00;;;;;;;;;;5005590;28;20049;-78
2024/01/02 07:19:50;;;;;;;0.00;0.00;;;;;;;;;;5010685;28;20051;-78
2024/01/02 07:22:37;;;;;;;0.10;0.00;;;;;;;;;;5016093;28;20049;-78
2024/01/02 07:25:15;;;;;;;;;;;;;;;;;;;;;
2024/01/02 07:28:10;;;;;;;0.93;0.10;;;;;;;;;;5015487;28;20060;-79
2024/01/02 07:30:47;;;;;;;0.40;0.17;;;;;;;;;;5000569;28;20014;-79
2024/01/02 07:36:01;;;;;;;0.20;0.00;;;;;;;;;;5079930;23;20061;-80
2024/01/02 07:38:57;;;;;;;;;;;;;;;;;;;;;
2024/01/02 07:47:43;;;;;;;0.10;0.10;;;;;;;;;;4996610;28;20035;-79
2024/01/02 07:50:19;;;;;;;0.20;0.20;;;;;;;;;;5002156;28;20074;-78
2024/01/02 07:52:55;;;;;;;0.10;0.00;;;;;;;;;;4995252;28;20039;-77
2024/01/02 07:55:39;;;;;;;0.03;0.00;;;;;;;;;;4980745;28;20037;-77
2024/01/02 07:58:15;;;;;;;0.00;0.00;;;;;;;;;;4989095;28;20081;-77
2024/01/02 08:01:03;;;;;;;0.00;0.00;;;;;;;;;;4996693;28;20050;-77
2024/01/02 08:03:39;;;;;;;0.10;0.10;;;;;;;;;;4993173;28;20015;-77
2024/01/02 08:06:10;;;;;;;0.13;0.03;;;;;;;;;;4995739;28;20034;-78
2024/01/02 08:08:52;;;;;;;;;;;;;;;;;;;;;
2024/01/02 08:11:23;;;;;;;0.13;0.10;;;;;;;;;;4998858;28;20051;-77
2024/01/02 08:13:58;;;;;;;0.10;0.03;;;;;;;;;;4981639;28;20042;-78
2024/01/02 08:16:45;;;;;;;0.80;0.17;;;;;;;;;;4998469;28;20031;-78
2024/01/02 08:19:24;;;;;;;1.70;0.10;;;;;;;;;;4982196;28;20037;-77
2024/01/02 08:24:53;;;;;;;0.33;0.13;;;;;;;;;;4996829;28;20070;-78
2024/01/02 08:27:29;;;;;;;;;;;;;;;;;;;;;
2024/01/02 08:30:00;;;;;;;0.30;0.10;;;;;;;;;;4998026;28;20041;-77
2024/01/02 08:32:50;;;;;;;0.00;0.00;;;;;;;;;;4996370;28;21433;-78
2024/01/02 08:35:28;;;;;;;0.10;0.10;;;;;;;;;;4994756;28;20012;-77
2024/01/02 08:37:59;;;;;;;0.47;0.13;;;;;;;;;;4980766;28;20034;-77
2024/01/02 08:40:25;;;;;;;0.37;0.10;;;;;;;;;;4998280;28;20041;-77
2024/01/02 08:42:53;;;;;;;0.63;0.10;;;;;;;;;;4992715;28;20043;-77
2024/01/02 08:45:35;;;;;;;;;;;;;;;;;;;;;
2024/01/02 08:50:57;;;;;;;0.10;0.10;;;;;;;;;;4990691;28;20034;-78
2024/01/02 08:53:33;;;;;;;0.63;0.10;;;;;;;;;;4970063;28;20011;-78
2024/01/02 08:55:59;;;;;;;0.00;0.00;;;;;;;;;;4988216;28;20027;-77
2024/01/02 08:58:30;;;;;;;0.20;0.00;;;;;;;;;;4991450;28;20034;-78
2024/01/02 09:01:25;;;;;;;0.10;0.00;;;;;;;;;;4989888;28;20087;-78
2024/01/02 09:03:54;;;;;;;0.20;0.10;;;;;;;;;;4973149;28;20038;-79
2024/01/02 09:06:24;;;;;;;0.10;0.10;;;;;;;;;;4991939;28;20014;-78
2024/01/02 09:08:58;;;;;;;0.10;0.10;;;;;;;;;;4975042;28;20034;-78
2024/01/02 09:11:37;;;;;;;0.40;0.00;;;;;;;;;;4985126;28;20024;-78
2024/01/02 09:16:38;;;;;;;0.10;0.10;;;;;;;;;;5000692;28;20058;-79
2024/01/02 09:19:41;;;;;;;1.00;0.33;;;;;;;;;;4999634;28;20061;-77
2024/01/02 09:22:34;;;;;;;1.30;0.25;;;;;;;;;;5000080;28;20039;-77
2024/01/02 09:25:13;;;;;;;;;;;;;;;;;;;;;
2024/01/02 09:27:48;;;;;;;0.10;0.10;;;;;;;;;;5000287;28;20071;-77
2024/01/02 09:30:30;;;;;;;0.63;0.13;;;;;;;;;;5000355;28;20082;-77
2024/01/02 09:33:33;;;;;;;;;;;;;;;;;;;;;
2024/01/02 09:36:07;;;;;;;;;;;;;;;;;;5001605;28;20069;-77
2024/01/02 09:38:36;;;;;;;0.20;0.20;;;;;;;;;;4998907;28;19938;-77
2024/01/02 09:41:24;;;;;;;0.57;0.10;;;;;;;;;;4998897;28;20038;-78
2024/01/02 09:43:58;;;;;;;0.10;0.10;;;;;;;;;;4991395;28;20043;-77
2024/01/02 09:47:00;;;;;;;;;;;;;;;;;;;;;
2024/01/02 09:49:37;;;;;;;;;;;;;;;;;;;;;
2024/01/02 09:52:32;;;;;;;;;;;;;;;;;;;;;
2024/01/02 09:55:33;;;;;;;;;;;;;;;;;;;;;
2024/01/02 09:58:19;;;;;;;0.20;0.10;;;;;;;;;;5002975;28;20065;-78
2024/01/02 10:01:17;;;;;;;;;;;;;;;;;;;;;
2024/01/02 10:03:52;;;;;;;1.43;0.37;;;;;;;;;;5002643;28;20055;-77
2024/01/02 10:09:18;;;;;;;4.07;1.33;;;;;;;;;;4991622;28;20060;-77
2024/01/02 10:11:47;;;;;;;1.80;0.20;;;;;;;;;;5000218;28;20037;-77
2024/01/02 10:14:28;;;;;;;0.30;0.20;;;;;;;;;;4999579;28;20030;-76
2024/01/02 10:17:13;;;;;;;0.27;0.20;;;;;;;;;;4990298;28;20027;-77
2024/01/02 10:19:58;;;;;;;0.87;0.53;;;;;;;;;;5000784;28;20038;-77
2024/01/02 10:22:31;;;;;;;0.10;0.10;;;;;;;;;;5002024;28;20031;-78
2024/01/02 10:25:07;;;;;;;0.40;0.27;;;;;;;;;;5001632;28;20029;-77
2024/01/02 10:27:45;;;;;;;0.50;0.20;;;;;;;;;;4991249;28;20031;-78
2024/01/02 10:30:14;;;;;;;0.20;0.20;;;;;;;;;;5000621;28;20023;-77
2024/01/02 10:32:59;;;;;;;0.33;0.30;;;;;;;;;;5001252;28;20651;-78
2024/01/02 10:35:55;;;;;;;0.30;0.20;;;;;;;;;;4983346;28;20031;-77
2024/01/02 10:38:32;;;;;;;0.50;0.17;;;;;;;;;;5001528;28;20042;-77
2024/01/02 10:41:28;;;;;;;0.30;0.20;;;;;;;;;;5001195;28;20038;-77
2024/01/02 10:44:23;;;;;;;;;;;;;;;;;;;;;
2024/01/02 10:47:17;;;;;;;0.57;0.30;;;;;;;;;;5020699;28;20034;-77
2024/01/02 10:49:53;;;;;;;0.90;0.13;;;;;;;;;;5014733;28;20025;-76
2024/01/02 10:52:22;;;;;;;0.60;0.10;;;;;;;;;;5002560;28;20030;-81
2024/01/02 10:55:26;;;;;;;0.40;0.20;;;;;;;;;;5023046;28;20048;-77
2024/01/02 10:57:59;;;;;;;2.30;0.20;;;;;;;;;;5016033;28;20073;-77
2024/01/02 11:00:28;;;;;;;0.10;0.10;;;;;;;;;;5003762;28;20010;-76
2024/01/02 11:03:04;;;;;;;0.20;0.10;;;;;;;;;;5003668;28;20013;-77
2024/01/02 11:05:55;;;;;;;0.40;0.20;;;;;;;;;;5011861;28;20025;-76
2024/01/02 11:08:54;;;;;;;0.50;0.20;;;;;;;;;;5003663;28;20087;-78
2024/01/02 11:11:41;;;;;;;0.40;0.20;;;;;;;;;;5015888;28;20041;-76
2024/01/02 11:14:17;;;;;;;0.40;0.30;;;;;;;;;;5010320;28;20038;-78
2024/01/02 11:19:54;;;;;;;2.60;0.47;;;;;;;;;;5000350;28;20019;-76
2024/01/02 11:28:47;;;;;;;0.60;0.30;;;;;;;;;;4948221;29;20031;-78
2024/01/02 11:31:25;;;;;;;1.02;0.52;;;;;;;;;;4925554;29;20016;-76
2024/01/02 11:34:27;;;;;;;0.70;0.37;;;;;;;;;;4922044;29;20028;-76
2024/01/02 11:37:22;;;;;;;;;;;;;;;;;;;;;
2024/01/02 11:40:25;;;;;;;;;;;;;;;;;;;;;
2024/01/02 11:43:17;;;;;;;0.20;0.10;;;;;;;;;;4921840;29;20017;-77
2024/01/02 11:45:59;;;;;;;1.10;0.20;;;;;;;;;;4922477;29;20025;-78
2024/01/02 11:48:53;;;;;;;;;;;;;;;;;;;;;
2024/01/02 11:51:28;;;;;;;0.10;0.10;;;;;;;;;;4922532;29;20021;-77
2024/01/02 11:54:22;;;;;;;0.67;0.20;;;;;;;;;;4906403;29;20023;-77
2024/01/02 11:57:04;;;;;;;1.10;0.20;;;;;;;;;;4933530;29;20032;-78
2024/01/02 12:00:11;;;;;;;0.60;0.30;;;;;;;;;;4924391;29;20029;-79
2024/01/02 12:02:45;;;;;;;0.30;0.20;;;;;;;;;;4945332;29;20016;-77
2024/01/02 12:05:21;;;;;;;0.30;0.20;;;;;;;;;;4944189;29;20023;-80
2024/01/02 12:08:07;;;;;;;0.63;0.20;;;;;;;;;;4943753;29;20011;-78
2024/01/02 12:11:01;;;;;;;0.33;0.23;;;;;;;;;;4943797;29;20047;-79
2024/01/02 12:13:58;;;;;;;0.60;0.30;;;;;;;;;;4937994;29;20019;-77
2024/01/02 12:16:29;;;;;;;0.73;0.20;;;;;;;;;;4953762;29;20032;-77
2024/01/02 12:22:10;;;;;;;1.10;0.30;;;;;;;;;;4978103;28;20018;-77
2024/01/02 12:27:58;;;;;;;1.03;0.50;;;;;;;;;;4996014;28;20019;-79
2024/01/02 12:30:45;;;;;;;1.13;0.20;;;;;;;;;;5000808;28;20090;-78
2024/01/02 12:33:28;;;;;;;1.07;0.50;;;;;;;;;;5004751;28;20037;-78
2024/01/02 12:38:53;;;;;;;3.17;0.75;;;;;;;;;;5004395;28;20027;-78
2024/01/02 12:41:37;;;;;;;1.30;0.43;;;;;;;;;;5001899;28;20023;-78
2024/01/02 12:44:33;;;;;;;1.90;0.57;;;;;;;;;;4998172;28;21406;-79
2024/01/02 12:53:57;;;;;;;1.50;0.50;;;;;;;;;;4996691;28;20019;-79
2024/01/02 12:56:37;;;;;;;4.63;0.70;;;;;;;;;;5012074;28;20115;-77
2024/01/02 12:59:17;;;;;;;2.60;0.50;;;;;;;;;;4994617;28;20042;-78
2024/01/02 13:02:04;;;;;;;6.60;1.83;;;;;;;;;;4999512;28;20030;-77
2024/01/02 13:04:59;;;;;;;4.37;1.30;;;;;;;;;;5016381;28;20022;-77
2024/01/02 13:07:36;;;;;;;4.20;1.10;;;;;;;;;;5006724;28;20070;-78
2024/01/02 13:10:24;;;;;;;5.67;1.30;;;;;;;;;;4998366;28;20018;-77
2024/01/02 13:13:10;;;;;;;;;;;;;;;;;;;;;
2024/01/02 13:15:46;;;;;;;2.20;0.80;;;;;;;;;;5016544;28;20053;-78
2024/01/02 13:18:27;;;;;;;2.53;0.80;;;;;;;;;;4998644;28;20061;-77
2024/01/02 13:20:59;;;;;;;6.43;1.53;;;;;;;;;;5016231;28;20041;-77
2024/01/02 13:23:51;;;;;;;3.00;0.70;;;;;;;;;;5000835;28;20022;-77
2024/01/02 13:26:32;;;;;;;2.55;0.80;;;;;;;;;;5012000;28;20126;-78
2024/01/02 13:30:14;;;;;;;6.70;1.60;;;;;;;;;;5019613;28;20040;-78
2024/01/02 13:32:23;;;;;;;5.17;1.33;;;;;;;;;;4998998;28;20138;-77
2024/01/02 13:35:15;;;;;;;4.00;1.30;;;;;;;;;;5002335;28;20021;-78
2024/01/02 13:38:14;;;;;;;;;;;;;;;;;;;;;
2024/01/02 13:41:13;;;;;;;;;;;;;;;;;;;;;
2024/01/02 13:44:06;;;;;;;3.33;0.67;;;;;;;;;;5015541;28;20061;-77
2024/01/02 13:46:57;;;;;;;1.90;1.05;;;;;;;;;;5007255;28;20011;-77
2024/01/02 13:50:02;;;;;;;;;;;;;;;;;;;;;
2024/01/02 13:52:49;;;;;;;2.00;0.83;;;;;;;;;;5017527;28;20032;-77
2024/01/02 13:58:49;;;;;;;;;;;;;;;;;;;;;
2024/01/02 14:01:41;;;;;;;2.87;0.67;;;;;;;;;;5014087;28;20049;-78
2024/01/02 14:04:17;;;;;;;1.10;0.70;;;;;;;;;;4946451;28;20050;-77
2024/01/02 14:07:04;;;;;;;;;;;;;;;;;;;;;
2024/01/02 14:16:23;;;;;;;1.40;0.47;;;;;;;;;;5011347;28;20041;-77
2024/01/02 14:19:02;;;;;;;1.33;0.40;;;;;;;;;;4991236;28;20054;-77
2024/01/02 14:21:39;;;;;;;;;;;;;;;;;;;;;
2024/01/02 14:24:39;;;;;;;2.07;0.50;;;;;;;;;;5014700;28;20054;-77
2024/01/02 14:27:16;;;;;;;1.57;0.30;;;;;;;;;;5005124;28;20027;-78
2024/01/02 14:30:08;;;;;;;1.10;0.40;;;;;;;;;;4997331;28;20207;-80
2024/01/02 14:36:16;;;;;;;2.13;0.70;;;;;;;;;;5006071;28;20049;-77
2024/01/02 14:39:08;;;;;;;1.10;0.37;;;;;;;;;;4979159;28;20034;-78
2024/01/02 14:48:00;;;;;;;2.13;1.00;;;;;;;;;;4991760;28;20038;-77
2024/01/02 14:50:49;;;;;;;1.67;0.70;;;;;;;;;;5005411;28;20034;-77
2024/01/02 14:53:41;;;;;;;1.00;0.60;;;;;;;;;;4985604;28;20098;-78
2024/01/02 14:56:15;;;;;;;0.93;0.60;;;;;;;;;;4996116;28;20019;-77
2024/01/02 14:58:47;;;;;;;0.83;0.60;;;;;;;;;;4991326;28;20089;-79
2024/01/02 15:01:35;;;;;;;1.83;0.57;;;;;;;;;;4988113;28;20030;-77
2024/01/02 15:04:42;;;;;;;4.47;0.77;;;;;;;;;;5000547;28;20026;-78
2024/01/02 15:07:33;;;;;;;1.30;0.80;;;;;;;;;;4995436;28;20211;-78
2024/01/02 15:09:59;;;;;;;1.07;0.50;;;;;;;;;;4991860;28;20099;-78
2024/01/02 15:12:36;;;;;;;2.03;0.40;;;;;;;;;;5003816;28;20022;-78
2024/01/02 15:15:22;;;;;;;1.40;0.87;;;;;;;;;;5004135;28;20098;-78
2024/01/02 15:20:47;;;;;;;1.97;0.70;;;;;;;;;;5007709;28;20103;-78
2024/01/02 15:23:26;;;;;;;0.50;0.20;;;;;;;;;;5004660;28;20041;-78
2024/01/02 15:25:55;;;;;;;1.07;0.40;;;;;;;;;;4991488;28;20014;-78
2024/01/02 15:28:40;;;;;;;1.30;0.37;;;;;;;;;;5005393;28;20057;-78
2024/01/02 15:31:15;;;;;;;1.80;0.37;;;;;;;;;;5005420;28;20030;-78
2024/01/02 15:36:50;;;;;;;1.13;0.40;;;;;;;;;;4995634;28;20062;-78
2024/01/02 15:39:41;;;;;;;0.60;0.30;;;;;;;;;;5005513;28;20020;-78
2024/01/02 15:42:22;;;;;;;0.90;0.67;;;;;;;;;;5004149;28;20019;-78
2024/01/02 15:45:00;;;;;;;1.37;0.30;;;;;;;;;;4989252;28;20035;-78
2024/01/02 15:47:42;;;;;;;1.33;0.57;;;;;;;;;;5003927;28;20018;-77
2024/01/02 15:50:38;;;;;;;2.78;1.00;;;;;;;;;;4991316;28;20053;-78
2024/01/02 15:53:24;;;;;;;1.17;0.60;;;;;;;;;;5002404;28;20033;-78
2024/01/02 15:56:19;;;;;;;1.37;0.50;;;;;;;;;;4989094;28;20087;-78
2024/01/02 15:58:56;;;;;;;3.80;0.43;;;;;;;;;;4994923;28;20030;-78
2024/01/02 16:01:32;;;;;;;0.70;0.30;;;;;;;;;;4987698;28;20018;-78
2024/01/02 16:04:20;;;;;;;1.17;0.30;;;;;;;;;;4987308;28;20074;-77
2024/01/02 16:07:07;;;;;;;1.07;0.40;;;;;;;;;;5004426;28;20030;-77
2024/01/02 16:10:12;;;;;;;0.80;0.40;;;;;;;;;;5004146;28;20046;-78
2024/01/02 16:12:56;;;;;;;1.73;0.50;;;;;;;;;;4974376;28;20028;-78
2024/01/02 16:15:44;;;;;;;0.77;0.20;;;;;;;;;;5006603;28;20050;-78
2024/01/02 16:18:29;;;;;;;1.10;0.60;;;;;;;;;;4989515;28;20062;-77
2024/01/02 16:24:34;;;;;;;1.30;0.47;;;;;;;;;;5001882;28;20019;-78
2024/01/02 16:27:10;;;;;;;;;;;;;;;;;;5003036;28;20015;-78
2024/01/02 16:30:12;;;;;;;0.60;0.30;;;;;;;;;;5002032;28;19918;-78
2024/01/02 16:33:09;;;;;;;1.48;0.43;;;;;;;;;;4986155;28;20061;-77
2024/01/02 16:36:05;;;;;;;1.63;0.30;;;;;;;;;;4994052;28;20046;-77
2024/01/02 16:38:38;;;;;;;3.50;0.50;;;;;;;;;;4999826;28;20034;-78
2024/01/02 16:41:38;;;;;;;;;;;;;;;;;;;;;
2024/01/02 16:44:22;;;;;;;1.43;0.60;;;;;;;;;;5068538;23;20988;-77
2024/01/02 16:46:51;;;;;;;0.80;0.43;;;;;;;;;;5020559;28;20053;-78
2024/01/02 16:49:40;;;;;;;1.03;0.40;;;;;;;;;;5022350;28;19998;-77
2024/01/02 16:55:46;;;;;;;;;;;;;;;;;;;;;
2024/01/02 16:58:32;;;;;;;2.40;0.63;;;;;;;;;;5042582;28;20017;-78
2024/01/02 17:01:01;;;;;;;5.57;0.83;;;;;;;;;;5017610;28;20013;-77
2024/01/02 17:03:39;;;;;;;3.70;1.00;;;;;;;;;;5023606;28;20022;-78
2024/01/02 17:06:31;;;;;;;1.13;0.80;;;;;;;;;;5060708;23;20066;-77
2024/01/02 17:09:06;;;;;;;0.93;0.40;;;;;;;;;;4989955;28;20023;-78
2024/01/02 17:14:59;;;;;;;;;;;;;;;;;;;;;
2024/01/02 17:17:41;;;;;;;;;;;;;;;;;;;;;
2024/01/02 17:20:39;;;;;;;0.47;0.30;;;;;;;;;;5015542;28;20007;-77
2024/01/02 17:23:16;;;;;;;0.43;0.30;;;;;;;;;;5005004;28;20242;-77
2024/01/02 17:26:03;;;;;;;1.13;0.43;;;;;;;;;;5019915;28;20018;-78
2024/01/02 17:28:36;;;;;;;1.67;0.70;;;;;;;;;;5007060;28;20046;-78
2024/01/02 17:31:28;;;;;;;2.17;0.30;;;;;;;;;;5014052;28;20037;-77
2024/01/02 17:33:54;;;;;;;0.47;0.23;;;;;;;;;;5012537;28;20026;-78
2024/01/02 17:36:27;;;;;;;0.50;0.30;;;;;;;;;;5004969;28;20034;-77
2024/01/02 17:39:15;;;;;;;2.42;0.40;;;;;;;;;;5005194;28;20045;-79
2024/01/02 17:44:55;;;;;;;;;;;;;;;;;;5107667;23;20068;-78
2024/01/02 17:47:49;;;;;;;0.50;0.27;;;;;;;;;;5041743;28;19890;-78
2024/01/02 17:50:48;;;;;;;;;;;;;;;;;;;;;
2024/01/02 17:53:14;;;;;;;0.83;0.30;;;;;;;;;;4939253;29;20016;-78
2024/01/02 17:55:49;;;;;;;1.13;0.20;;;;;;;;;;5007136;28;20045;-78
2024/01/02 17:58:15;;;;;;;0.87;0.40;;;;;;;;;;5024559;28;20026;-78
2024/01/02 18:04:09;;;;;;;0.60;0.27;;;;;;;;;;5023066;28;20018;-78
2024/01/02 18:06:58;;;;;;;1.63;0.20;;;;;;;;;;5017878;28;20015;-79
2024/01/02 18:09:37;;;;;;;0.50;0.30;;;;;;;;;;5015961;28;20006;-78
2024/01/02 18:12:09;;;;;;;1.20;0.17;;;;;;;;;;5038573;28;20024;-78
2024/01/02 18:14:45;;;;;;;0.63;0.20;;;;;;;;;;5021929;28;20086;-82
2024/01/02 18:17:33;;;;;;;0.47;0.10;;;;;;;;;;5011089;28;20026;-78
2024/01/02 18:20:14;;;;;;;0.10;0.10;;;;;;;;;;5018803;28;20022;-79
2024/01/02 18:22:47;;;;;;;0.73;0.20;;;;;;;;;;5016683;28;20093;-78
2024/01/02 18:25:19;;;;;;;0.20;0.20;;;;;;;;;;5023925;28;20018;-78
2024/01/02 18:28:00;;;;;;;1.05;0.20;;;;;;;;;;5057314;23;20785;-78
2024/01/02 18:30:38;;;;;;;0.53;0.30;;;;;;;;;;5013290;28;20027;-78
2024/01/02 18:33:50;;;;;;;1.27;0.30;;;;;;;;;;5001657;28;20011;-78